createdAt,value
2018-04-30T00:00:34.841Z,980.4
2018-04-30T00:01:36.408Z,980.4
2018-04-30T00:02:37.962Z,980.4
2018-04-30T00:03:39.501Z,980.3
2018-04-30T00:04:40.972Z,980.3
2018-04-30T00:05:42.387Z,980.3
2018-04-30T00:06:43.829Z,980.3
2018-04-30T00:07:45.261Z,980.2
2018-04-30T00:08:46.721Z,980.2
2018-04-30T00:09:48.160Z,980.2
2018-04-30T00:10:49.637Z,980.2
2018-04-30T00:11:51.175Z,980.1
2018-04-30T00:12:52.675Z,980.1
2018-04-30T00:13:54.139Z,980.1
2018-04-30T00:14:55.658Z,980.1
2018-04-30T00:15:57.148Z,980.0
2018-04-30T00:16:58.586Z,980.0
2018-04-30T00:18:00.080Z,980.0
2018-04-30T00:19:01.569Z,980.0
2018-04-30T00:20:03.266Z,979.9
2018-04-30T00:21:07.008Z,979.9
2018-04-30T00:22:08.543Z,979.9
2018-04-30T00:23:12.814Z,979.9
2018-04-30T00:24:14.590Z,979.8
2018-04-30T00:25:16.091Z,979.8
2018-04-30T00:26:17.698Z,979.8
2018-04-30T00:27:19.278Z,979.7
2018-04-30T00:28:20.739Z,979.7
2018-04-30T00:29:22.192Z,979.7
2018-04-30T00:30:23.676Z,979.7
2018-04-30T00:31:25.147Z,979.7
2018-04-30T00:32:26.642Z,979.8
2018-04-30T00:33:28.143Z,979.7
2018-04-30T00:34:29.690Z,979.7
2018-04-30T00:35:31.196Z,979.7
2018-04-30T00:36:32.856Z,979.8
2018-04-30T00:37:34.311Z,979.7
2018-04-30T00:38:35.799Z,979.7
2018-04-30T00:39:37.353Z,979.7
2018-04-30T00:40:38.889Z,979.7
2018-04-30T00:41:40.377Z,979.7
2018-04-30T00:42:41.896Z,979.7
2018-04-30T00:43:43.417Z,979.6
2018-04-30T00:44:44.859Z,979.6
2018-04-30T00:45:46.340Z,979.6
2018-04-30T00:46:47.814Z,979.6
2018-04-30T00:47:49.364Z,979.6
2018-04-30T00:48:50.836Z,979.5
2018-04-30T00:49:52.312Z,979.5
2018-04-30T00:50:53.907Z,979.5
2018-04-30T00:51:55.455Z,979.6
2018-04-30T00:52:56.893Z,979.6
2018-04-30T00:53:58.438Z,979.6
2018-04-30T00:54:59.973Z,979.5
2018-04-30T00:56:01.432Z,979.4
2018-04-30T00:57:02.981Z,979.4
2018-04-30T00:58:04.514Z,979.4
2018-04-30T00:59:06.017Z,979.4
2018-04-30T01:00:07.524Z,979.4
2018-04-30T01:01:09.064Z,979.4
2018-04-30T01:02:10.590Z,979.4
2018-04-30T01:03:12.112Z,979.3
2018-04-30T01:04:13.684Z,979.3
2018-04-30T01:05:15.179Z,979.3
2018-04-30T01:06:16.674Z,979.3
2018-04-30T01:07:18.117Z,979.2
2018-04-30T01:08:19.546Z,979.2
2018-04-30T01:09:21.019Z,979.3
2018-04-30T01:10:22.511Z,979.2
2018-04-30T01:11:24.074Z,979.2
2018-04-30T01:12:25.509Z,979.2
2018-04-30T01:13:27.013Z,979.2
2018-04-30T01:14:28.554Z,979.2
2018-04-30T01:15:30.113Z,979.2
2018-04-30T01:16:31.543Z,979.2
2018-04-30T01:17:33.048Z,979.2
2018-04-30T01:18:34.555Z,979.2
2018-04-30T01:19:36.019Z,979.2
2018-04-30T01:20:37.463Z,979.2
2018-04-30T01:21:38.939Z,979.2
2018-04-30T01:22:40.433Z,979.2
2018-04-30T01:23:42.009Z,979.2
2018-04-30T01:24:43.705Z,979.2
2018-04-30T01:25:45.898Z,979.2
2018-04-30T01:26:47.582Z,979.2
2018-04-30T01:27:49.134Z,979.2
2018-04-30T01:28:50.717Z,979.2
2018-04-30T01:29:52.253Z,979.1
2018-04-30T01:30:54.617Z,979.1
2018-04-30T01:31:56.121Z,979.1
2018-04-30T01:32:57.628Z,979.1
2018-04-30T01:33:59.149Z,979.1
2018-04-30T01:35:00.718Z,979.0
2018-04-30T01:36:02.172Z,979.0
2018-04-30T01:37:03.688Z,979.0
2018-04-30T01:38:05.187Z,979.0
2018-04-30T01:39:06.673Z,978.9
2018-04-30T01:40:08.187Z,979.0
2018-04-30T01:41:09.712Z,978.9
2018-04-30T01:42:11.189Z,978.9
2018-04-30T01:43:12.659Z,978.9
2018-04-30T01:44:14.140Z,978.9
2018-04-30T01:45:15.590Z,978.9
2018-04-30T01:46:17.050Z,978.9
2018-04-30T01:47:18.549Z,978.9
2018-04-30T01:48:19.966Z,978.9
2018-04-30T01:49:21.520Z,979.0
2018-04-30T01:50:23.015Z,978.9
2018-04-30T01:51:24.580Z,979.0
2018-04-30T01:52:26.344Z,978.9
2018-04-30T01:53:27.782Z,978.9
2018-04-30T01:54:29.274Z,978.9
2018-04-30T01:55:30.732Z,978.9
2018-04-30T01:56:32.155Z,978.9
2018-04-30T01:57:33.681Z,978.9
2018-04-30T01:58:35.081Z,978.9
2018-04-30T01:59:36.511Z,978.9
2018-04-30T02:00:37.924Z,978.9
2018-04-30T02:01:39.333Z,978.8
2018-04-30T02:02:40.756Z,978.8
2018-04-30T02:03:42.169Z,978.8
2018-04-30T02:04:43.576Z,978.8
2018-04-30T02:05:44.982Z,978.8
2018-04-30T02:06:46.412Z,978.8
2018-04-30T02:07:47.868Z,978.8
2018-04-30T02:08:49.500Z,978.8
2018-04-30T02:09:50.911Z,978.8
2018-04-30T02:10:52.354Z,978.8
2018-04-30T02:11:53.805Z,978.8
2018-04-30T02:12:55.261Z,978.8
2018-04-30T02:13:56.748Z,978.8
2018-04-30T02:14:58.169Z,978.7
2018-04-30T02:15:59.632Z,978.8
2018-04-30T02:17:01.090Z,978.8
2018-04-30T02:18:02.550Z,978.8
2018-04-30T02:19:04.006Z,978.8
2018-04-30T02:20:05.429Z,978.8
2018-04-30T02:21:06.890Z,978.8
2018-04-30T02:22:08.356Z,978.7
2018-04-30T02:23:09.796Z,978.7
2018-04-30T02:24:11.252Z,978.7
2018-04-30T02:25:12.743Z,978.6
2018-04-30T02:26:14.184Z,978.6
2018-04-30T02:27:15.650Z,978.6
2018-04-30T02:28:17.123Z,978.5
2018-04-30T02:29:18.591Z,978.5
2018-04-30T02:30:20.036Z,978.5
2018-04-30T02:31:21.495Z,978.5
2018-04-30T02:32:22.927Z,978.4
2018-04-30T02:33:24.408Z,978.4
2018-04-30T02:34:25.986Z,978.4
2018-04-30T02:35:27.453Z,978.4
2018-04-30T02:36:28.903Z,978.4
2018-04-30T02:37:30.378Z,978.4
2018-04-30T02:38:31.838Z,978.3
2018-04-30T02:39:33.272Z,978.4
2018-04-30T02:40:34.734Z,978.3
2018-04-30T02:41:36.235Z,978.4
2018-04-30T02:42:37.684Z,978.4
2018-04-30T02:43:39.218Z,978.3
2018-04-30T02:44:40.701Z,978.3
2018-04-30T02:45:42.260Z,978.3
2018-04-30T02:46:43.735Z,978.3
2018-04-30T02:47:45.175Z,978.3
2018-04-30T02:48:46.669Z,978.2
2018-04-30T02:49:48.154Z,978.2
2018-04-30T02:50:49.606Z,978.2
2018-04-30T02:51:51.109Z,978.2
2018-04-30T02:52:52.605Z,978.2
2018-04-30T02:53:54.084Z,978.2
2018-04-30T02:54:55.521Z,978.2
2018-04-30T02:55:56.926Z,978.2
2018-04-30T02:56:58.371Z,978.2
2018-04-30T02:57:59.887Z,978.2
2018-04-30T02:59:01.323Z,978.2
2018-04-30T03:00:02.777Z,978.2
2018-04-30T03:01:04.216Z,978.1
2018-04-30T03:02:05.700Z,978.2
2018-04-30T03:03:07.146Z,978.2
2018-04-30T03:04:08.632Z,978.2
2018-04-30T03:05:10.053Z,978.2
2018-04-30T03:06:11.480Z,978.2
2018-04-30T03:07:12.955Z,978.2
2018-04-30T03:08:14.383Z,978.2
2018-04-30T03:09:15.814Z,978.2
2018-04-30T03:10:17.294Z,978.2
2018-04-30T03:11:18.698Z,978.2
2018-04-30T03:12:20.109Z,978.3
2018-04-30T03:13:21.528Z,978.3
2018-04-30T03:14:22.938Z,978.3
2018-04-30T03:15:24.359Z,978.3
2018-04-30T03:16:25.760Z,978.2
2018-04-30T03:17:27.161Z,978.2
2018-04-30T03:18:28.568Z,978.2
2018-04-30T03:19:29.964Z,978.2
2018-04-30T03:20:31.366Z,978.2
2018-04-30T03:21:32.765Z,978.2
2018-04-30T03:22:34.163Z,978.2
2018-04-30T03:23:35.568Z,978.2
2018-04-30T03:24:36.968Z,978.3
2018-04-30T03:25:38.375Z,978.3
2018-04-30T03:26:39.771Z,978.3
2018-04-30T03:27:41.164Z,978.4
2018-04-30T03:28:42.566Z,978.4
2018-04-30T03:29:43.976Z,978.4
2018-04-30T03:30:45.373Z,978.4
2018-04-30T03:31:46.777Z,978.3
2018-04-30T03:32:48.175Z,978.2
2018-04-30T03:33:49.584Z,978.3
2018-04-30T03:34:50.975Z,978.4
2018-04-30T03:35:52.381Z,978.4
2018-04-30T03:36:53.782Z,978.5
2018-04-30T03:37:55.199Z,978.5
2018-04-30T03:38:56.581Z,978.4
2018-04-30T03:39:57.982Z,978.4
2018-04-30T03:40:59.413Z,978.4
2018-04-30T03:42:00.800Z,978.5
2018-04-30T03:43:02.209Z,978.5
2018-04-30T03:44:03.624Z,978.6
2018-04-30T03:45:05.015Z,978.6
2018-04-30T03:46:06.415Z,978.6
2018-04-30T03:47:07.818Z,978.5
2018-04-30T03:48:09.222Z,978.5
2018-04-30T03:49:10.621Z,978.5
2018-04-30T03:50:12.025Z,978.5
2018-04-30T03:51:13.439Z,978.5
2018-04-30T03:52:14.847Z,978.6
2018-04-30T03:53:16.246Z,978.6
2018-04-30T03:54:17.652Z,978.5
2018-04-30T03:55:19.056Z,978.5
2018-04-30T03:56:20.733Z,978.6
2018-04-30T03:57:22.247Z,978.6
2018-04-30T03:58:23.752Z,978.6
2018-04-30T03:59:25.275Z,978.6
2018-04-30T04:00:26.741Z,978.5
2018-04-30T04:01:28.241Z,978.6
2018-04-30T04:02:29.747Z,978.5
2018-04-30T04:03:31.253Z,978.5
2018-04-30T04:04:32.747Z,978.5
2018-04-30T04:05:34.266Z,978.5
2018-04-30T04:06:36.525Z,978.6
2018-04-30T04:07:38.061Z,978.6
2018-04-30T04:08:39.606Z,978.6
2018-04-30T04:09:41.071Z,978.7
2018-04-30T04:10:42.613Z,978.6
2018-04-30T04:11:44.106Z,978.5
2018-04-30T04:12:45.587Z,978.5
2018-04-30T04:13:47.080Z,978.5
2018-04-30T04:14:48.576Z,978.5
2018-04-30T04:15:50.133Z,978.6
2018-04-30T04:16:51.626Z,978.7
2018-04-30T04:17:53.113Z,978.6
2018-04-30T04:18:54.669Z,978.6
2018-04-30T04:19:56.196Z,978.6
2018-04-30T04:20:57.691Z,978.6
2018-04-30T04:21:59.219Z,978.6
2018-04-30T04:23:00.664Z,978.6
2018-04-30T04:24:02.125Z,978.6
2018-04-30T04:25:03.635Z,978.7
2018-04-30T04:26:05.151Z,978.7
2018-04-30T04:27:06.598Z,978.7
2018-04-30T04:28:08.067Z,978.7
2018-04-30T04:29:09.579Z,978.7
2018-04-30T04:30:11.051Z,978.7
2018-04-30T04:31:12.588Z,978.8
2018-04-30T04:32:14.019Z,978.8
2018-04-30T04:33:15.533Z,978.8
2018-04-30T04:34:17.005Z,978.8
2018-04-30T04:35:18.472Z,978.8
2018-04-30T04:36:19.976Z,978.8
2018-04-30T04:37:21.467Z,978.8
2018-04-30T04:38:22.982Z,978.9
2018-04-30T04:39:24.441Z,978.9
2018-04-30T04:40:25.938Z,979.0
2018-04-30T04:41:27.522Z,979.0
2018-04-30T04:42:28.999Z,979.0
2018-04-30T04:43:30.454Z,978.9
2018-04-30T04:44:31.972Z,978.8
2018-04-30T04:45:33.498Z,978.8
2018-04-30T04:46:34.936Z,978.8
2018-04-30T04:47:36.431Z,978.9
2018-04-30T04:48:37.858Z,979.0
2018-04-30T04:49:39.263Z,979.1
2018-04-30T04:50:40.673Z,979.1
2018-04-30T04:51:42.085Z,979.1
2018-04-30T04:52:43.489Z,979.1
2018-04-30T04:53:44.905Z,979.1
2018-04-30T04:54:46.317Z,979.2
2018-04-30T04:55:47.733Z,979.2
2018-04-30T04:56:49.158Z,979.1
2018-04-30T04:57:50.597Z,979.1
2018-04-30T04:58:52.047Z,979.1
2018-04-30T04:59:53.482Z,979.1
2018-04-30T05:00:54.913Z,979.0
2018-04-30T05:01:56.318Z,979.0
2018-04-30T05:02:57.777Z,979.1
2018-04-30T05:03:59.260Z,979.2
2018-04-30T05:05:00.770Z,979.3
2018-04-30T05:06:02.285Z,979.3
2018-04-30T05:07:03.826Z,979.4
2018-04-30T05:08:05.279Z,979.3
2018-04-30T05:09:06.716Z,979.4
2018-04-30T05:10:08.140Z,979.4
2018-04-30T05:11:09.571Z,979.4
2018-04-30T05:12:10.984Z,979.4
2018-04-30T05:13:12.414Z,979.4
2018-04-30T05:14:13.827Z,979.4
2018-04-30T05:15:15.259Z,979.3
2018-04-30T05:16:16.689Z,979.4
2018-04-30T05:17:18.111Z,979.4
2018-04-30T05:18:19.562Z,979.5
2018-04-30T05:19:20.967Z,979.4
2018-04-30T05:20:22.373Z,979.4
2018-04-30T05:21:23.779Z,979.4
2018-04-30T05:22:25.229Z,979.4
2018-04-30T05:23:26.706Z,979.4
2018-04-30T05:24:28.123Z,979.4
2018-04-30T05:25:29.608Z,979.4
2018-04-30T05:26:31.030Z,979.4
2018-04-30T05:27:32.557Z,979.4
2018-04-30T05:28:34.008Z,979.5
2018-04-30T05:29:35.547Z,979.5
2018-04-30T05:30:37.039Z,979.5
2018-04-30T05:31:38.524Z,979.5
2018-04-30T05:32:40.017Z,979.6
2018-04-30T05:33:41.563Z,979.6
2018-04-30T05:34:43.113Z,979.6
2018-04-30T05:35:44.636Z,979.6
2018-04-30T05:36:46.168Z,979.6
2018-04-30T05:37:47.674Z,979.7
2018-04-30T05:38:49.178Z,979.7
2018-04-30T05:39:51.036Z,979.7
2018-04-30T05:40:52.479Z,979.8
2018-04-30T05:41:54.011Z,979.8
2018-04-30T05:42:55.535Z,979.8
2018-04-30T05:43:56.964Z,979.8
2018-04-30T05:44:58.728Z,979.9
2018-04-30T05:46:00.383Z,979.9
2018-04-30T05:47:02.164Z,980.0
2018-04-30T05:48:09.642Z,980.0
2018-04-30T05:49:11.011Z,980.0
2018-04-30T05:50:12.616Z,980.0
2018-04-30T05:51:14.842Z,980.0
2018-04-30T05:52:16.478Z,980.0
2018-04-30T05:53:18.478Z,980.0
2018-04-30T05:54:20.103Z,980.0
2018-04-30T05:55:21.631Z,980.0
2018-04-30T05:56:23.213Z,980.0
2018-04-30T05:57:24.860Z,980.0
2018-04-30T05:58:26.480Z,980.1
2018-04-30T05:59:28.084Z,980.1
2018-04-30T06:00:29.695Z,980.1
2018-04-30T06:01:31.258Z,980.2
2018-04-30T06:02:32.795Z,980.2
2018-04-30T06:03:34.400Z,980.2
2018-04-30T06:04:36.285Z,980.2
2018-04-30T06:05:37.904Z,980.2
2018-04-30T06:06:39.992Z,980.2
2018-04-30T06:07:41.568Z,980.2
2018-04-30T06:08:43.855Z,980.2
2018-04-30T06:09:48.102Z,980.2
2018-04-30T06:10:53.495Z,980.3
2018-04-30T06:11:55.909Z,980.3
2018-04-30T06:13:02.259Z,980.3
2018-04-30T06:14:07.901Z,980.3
2018-04-30T06:15:11.359Z,980.4
2018-04-30T06:16:13.204Z,980.4
2018-04-30T06:17:18.381Z,980.4
2018-04-30T06:18:23.543Z,980.4
2018-04-30T06:19:28.240Z,980.4
2018-04-30T06:20:35.427Z,980.4
2018-04-30T06:21:37.014Z,980.4
2018-04-30T06:22:39.689Z,980.4
2018-04-30T06:23:44.960Z,980.5
2018-04-30T06:24:46.610Z,980.4
2018-04-30T06:25:49.086Z,980.4
2018-04-30T06:26:50.788Z,980.5
2018-04-30T06:27:52.520Z,980.5
2018-04-30T06:28:54.330Z,980.6
2018-04-30T06:29:55.799Z,980.6
2018-04-30T06:30:57.386Z,980.6
2018-04-30T06:31:58.933Z,980.6
2018-04-30T06:33:00.551Z,980.7
2018-04-30T06:34:02.163Z,980.7
2018-04-30T06:35:03.755Z,980.7
2018-04-30T06:36:05.337Z,980.7
2018-04-30T06:37:06.843Z,980.8
2018-04-30T06:38:08.555Z,980.7
2018-04-30T06:39:10.186Z,980.7
2018-04-30T06:40:11.778Z,980.7
2018-04-30T06:41:13.367Z,980.8
2018-04-30T06:42:14.826Z,980.8
2018-04-30T06:43:16.390Z,980.8
2018-04-30T06:44:17.938Z,980.8
2018-04-30T06:45:19.702Z,980.6
2018-04-30T06:46:21.463Z,980.8
2018-04-30T06:47:22.970Z,980.8
2018-04-30T06:48:24.406Z,980.9
2018-04-30T06:49:26.000Z,981.0
2018-04-30T06:50:27.618Z,980.9
2018-04-30T06:51:30.339Z,980.9
2018-04-30T06:52:31.841Z,980.9
2018-04-30T06:53:33.633Z,980.9
2018-04-30T06:54:35.297Z,980.9
2018-04-30T06:55:36.860Z,981.0
2018-04-30T06:56:38.728Z,981.0
2018-04-30T06:57:40.254Z,981.0
2018-04-30T06:58:41.800Z,981.2
2018-04-30T06:59:43.496Z,981.1
2018-04-30T07:00:45.041Z,981.2
2018-04-30T07:01:46.583Z,981.3
2018-04-30T07:02:48.209Z,981.4
2018-04-30T07:03:49.761Z,981.4
2018-04-30T07:04:51.340Z,981.4
2018-04-30T07:05:53.246Z,981.4
2018-04-30T07:06:54.665Z,981.5
2018-04-30T07:07:56.244Z,981.5
2018-04-30T07:08:57.759Z,981.7
2018-04-30T07:09:59.292Z,981.5
2018-04-30T07:11:00.989Z,981.6
2018-04-30T07:12:03.353Z,981.6
2018-04-30T07:13:05.069Z,981.7
2018-04-30T07:14:07.174Z,981.7
2018-04-30T07:15:08.673Z,981.8
2018-04-30T07:16:10.186Z,981.7
2018-04-30T07:17:11.680Z,981.7
2018-04-30T07:18:13.238Z,981.8
2018-04-30T07:19:14.723Z,981.7
2018-04-30T07:20:16.232Z,981.7
2018-04-30T07:21:17.788Z,981.9
2018-04-30T07:22:19.265Z,981.7
2018-04-30T07:23:20.798Z,981.8
2018-04-30T07:24:22.260Z,981.7
2018-04-30T07:25:23.885Z,981.7
2018-04-30T07:26:25.364Z,981.9
2018-04-30T07:27:26.930Z,982.1
2018-04-30T07:28:28.395Z,981.9
2018-04-30T07:29:29.930Z,982.0
2018-04-30T07:30:31.452Z,982.1
2018-04-30T07:31:33.090Z,982.1
2018-04-30T07:32:34.562Z,982.4
2018-04-30T07:33:36.063Z,982.2
2018-04-30T07:34:37.544Z,982.3
2018-04-30T07:35:39.065Z,982.3
2018-04-30T07:36:40.583Z,982.3
2018-04-30T07:37:42.095Z,982.4
2018-04-30T07:38:43.571Z,982.4
2018-04-30T07:39:45.007Z,982.5
2018-04-30T07:40:46.492Z,982.4
2018-04-30T07:41:47.954Z,982.5
2018-04-30T07:42:49.463Z,982.4
2018-04-30T07:43:50.965Z,982.5
2018-04-30T07:44:52.430Z,982.5
2018-04-30T07:45:53.928Z,982.6
2018-04-30T07:46:55.411Z,982.6
2018-04-30T07:47:56.926Z,982.6
2018-04-30T07:48:58.389Z,982.5
2018-04-30T07:49:59.853Z,982.5
2018-04-30T07:51:01.476Z,982.5
2018-04-30T07:52:02.950Z,982.5
2018-04-30T07:53:04.413Z,982.6
2018-04-30T07:54:05.839Z,982.8
2018-04-30T07:55:07.302Z,982.7
2018-04-30T07:56:08.780Z,982.8
2018-04-30T07:57:10.276Z,982.8
2018-04-30T07:58:11.767Z,982.7
2018-04-30T07:59:13.228Z,982.9
2018-04-30T08:00:14.664Z,982.8
2018-04-30T08:01:16.166Z,982.9
2018-04-30T08:02:17.604Z,982.9
2018-04-30T08:03:19.067Z,982.9
2018-04-30T08:04:20.502Z,982.9
2018-04-30T08:05:21.910Z,983.0
2018-04-30T08:06:23.340Z,983.1
2018-04-30T08:07:24.802Z,983.0
2018-04-30T08:08:26.321Z,983.2
2018-04-30T08:09:27.882Z,983.2
2018-04-30T08:10:29.340Z,983.2
2018-04-30T08:11:30.859Z,983.4
2018-04-30T08:12:32.352Z,983.1
2018-04-30T08:13:33.883Z,983.2
2018-04-30T08:14:35.350Z,983.2
2018-04-30T08:15:36.863Z,983.3
2018-04-30T08:16:38.389Z,983.2
2018-04-30T08:17:39.838Z,983.3
2018-04-30T08:18:41.317Z,983.3
2018-04-30T08:19:42.819Z,983.4
2018-04-30T08:20:44.298Z,983.4
2018-04-30T08:21:45.787Z,983.4
2018-04-30T08:22:47.300Z,983.4
2018-04-30T08:23:48.837Z,983.4
2018-04-30T08:24:50.298Z,983.4
2018-04-30T08:25:51.763Z,983.4
2018-04-30T08:26:53.222Z,983.4
2018-04-30T08:27:54.682Z,983.5
2018-04-30T08:28:56.176Z,983.4
2018-04-30T08:29:57.645Z,983.4
2018-04-30T08:30:59.226Z,983.5
2018-04-30T08:32:00.677Z,983.6
2018-04-30T08:33:02.128Z,983.7
2018-04-30T08:34:03.581Z,983.6
2018-04-30T08:35:05.073Z,983.7
2018-04-30T08:36:06.554Z,983.7
2018-04-30T08:37:08.004Z,983.7
2018-04-30T08:38:09.483Z,983.7
2018-04-30T08:39:10.930Z,983.7
2018-04-30T08:40:12.391Z,983.7
2018-04-30T08:41:13.867Z,983.6
2018-04-30T08:42:15.359Z,983.7
2018-04-30T08:43:16.869Z,983.7
2018-04-30T08:44:18.292Z,983.8
2018-04-30T08:45:19.757Z,983.8
2018-04-30T08:46:21.261Z,983.8
2018-04-30T08:47:22.737Z,983.8
2018-04-30T08:48:24.155Z,983.7
2018-04-30T08:49:25.600Z,983.7
2018-04-30T08:50:27.099Z,983.5
2018-04-30T08:51:28.593Z,983.6
2018-04-30T08:52:30.027Z,983.7
2018-04-30T08:53:31.489Z,983.9
2018-04-30T08:54:32.968Z,983.9
2018-04-30T08:55:34.488Z,984.0
2018-04-30T08:56:35.945Z,984.0
2018-04-30T08:57:37.378Z,983.9
2018-04-30T08:58:38.851Z,984.2
2018-04-30T08:59:40.370Z,984.2
2018-04-30T09:00:41.931Z,984.0
2018-04-30T09:01:43.327Z,984.3
2018-04-30T09:02:44.783Z,984.0
2018-04-30T09:03:46.197Z,984.2
2018-04-30T09:04:47.602Z,984.3
2018-04-30T09:05:49.018Z,984.1
2018-04-30T09:06:50.419Z,984.1
2018-04-30T09:07:51.842Z,983.9
2018-04-30T09:08:53.260Z,983.9
2018-04-30T09:09:54.676Z,983.9
2018-04-30T09:10:56.090Z,983.9
2018-04-30T09:11:57.506Z,983.8
2018-04-30T09:12:58.911Z,983.9
2018-04-30T09:14:00.325Z,984.0
2018-04-30T09:15:01.737Z,983.9
2018-04-30T09:16:03.144Z,983.9
2018-04-30T09:17:04.555Z,983.9
2018-04-30T09:18:05.970Z,984.1
2018-04-30T09:19:07.394Z,983.9
2018-04-30T09:20:08.800Z,984.1
2018-04-30T09:21:10.207Z,984.0
2018-04-30T09:22:11.617Z,984.1
2018-04-30T09:23:13.028Z,983.9
2018-04-30T09:24:14.439Z,983.8
2018-04-30T09:25:15.873Z,983.9
2018-04-30T09:26:17.272Z,984.0
2018-04-30T09:27:18.682Z,984.0
2018-04-30T09:28:20.089Z,984.0
2018-04-30T09:29:21.498Z,983.9
2018-04-30T09:30:22.906Z,984.1
2018-04-30T09:31:24.320Z,984.0
2018-04-30T09:32:25.732Z,983.9
2018-04-30T09:33:27.135Z,983.9
2018-04-30T09:34:28.544Z,983.8
2018-04-30T09:35:29.959Z,983.8
2018-04-30T09:36:31.374Z,983.8
2018-04-30T09:37:32.782Z,983.8
2018-04-30T09:38:34.187Z,983.8
2018-04-30T09:39:35.604Z,983.7
2018-04-30T09:40:37.011Z,983.6
2018-04-30T09:41:38.416Z,983.7
2018-04-30T09:42:39.827Z,983.8
2018-04-30T09:43:41.243Z,984.0
2018-04-30T09:44:42.661Z,984.0
2018-04-30T09:45:44.071Z,983.9
2018-04-30T09:46:45.484Z,984.0
2018-04-30T09:47:46.890Z,984.0
2018-04-30T09:48:48.297Z,984.1
2018-04-30T09:49:49.708Z,984.1
2018-04-30T09:50:51.119Z,984.2
2018-04-30T09:51:52.527Z,984.5
2018-04-30T09:52:53.936Z,984.5
2018-04-30T09:53:55.348Z,984.6
2018-04-30T09:54:56.771Z,984.5
2018-04-30T09:55:58.179Z,984.4
2018-04-30T09:56:59.588Z,984.4
2018-04-30T09:58:01.080Z,984.3
2018-04-30T09:59:02.410Z,984.2
2018-04-30T10:00:03.818Z,984.4
2018-04-30T10:01:05.231Z,984.3
2018-04-30T10:02:06.637Z,984.4
2018-04-30T10:03:08.048Z,984.4
2018-04-30T10:04:09.449Z,984.4
2018-04-30T10:05:10.863Z,984.3
2018-04-30T10:06:12.272Z,984.3
2018-04-30T10:07:13.699Z,984.4
2018-04-30T10:08:15.101Z,984.2
2018-04-30T10:09:16.505Z,984.3
2018-04-30T10:10:17.921Z,984.2
2018-04-30T10:11:19.329Z,984.3
2018-04-30T10:12:20.783Z,984.2
2018-04-30T10:13:22.192Z,984.3
2018-04-30T10:14:23.606Z,984.2
2018-04-30T10:15:25.015Z,984.1
2018-04-30T10:16:26.423Z,984.2
2018-04-30T10:17:27.833Z,984.4
2018-04-30T10:18:29.236Z,984.5
2018-04-30T10:19:30.644Z,984.4
2018-04-30T10:20:32.057Z,984.5
2018-04-30T10:21:33.465Z,984.5
2018-04-30T10:22:34.916Z,984.5
2018-04-30T10:23:36.422Z,984.3
2018-04-30T10:24:37.763Z,984.2
2018-04-30T10:25:39.175Z,984.4
2018-04-30T10:26:40.586Z,984.2
2018-04-30T10:27:41.995Z,984.6
2018-04-30T10:28:43.406Z,984.4
2018-04-30T10:29:44.830Z,984.2
2018-04-30T10:30:46.233Z,984.6
2018-04-30T10:31:47.647Z,984.8
2018-04-30T10:32:49.059Z,984.8
2018-04-30T10:33:50.465Z,984.6
2018-04-30T10:34:51.880Z,984.5
2018-04-30T10:35:53.287Z,984.4
2018-04-30T10:36:54.703Z,984.5
2018-04-30T10:37:56.214Z,984.9
2018-04-30T10:38:57.521Z,984.9
2018-04-30T10:39:58.932Z,985.0
2018-04-30T10:41:00.345Z,984.9
2018-04-30T10:42:01.756Z,985.0
2018-04-30T10:43:03.176Z,984.9
2018-04-30T10:44:04.587Z,984.7
2018-04-30T10:45:06.002Z,984.8
2018-04-30T10:46:07.456Z,984.9
2018-04-30T10:47:08.812Z,984.9
2018-04-30T10:48:10.228Z,984.9
2018-04-30T10:49:11.650Z,984.9
2018-04-30T10:50:13.061Z,985.0
2018-04-30T10:51:14.471Z,985.2
2018-04-30T10:52:15.887Z,985.0
2018-04-30T10:53:17.298Z,984.8
2018-04-30T10:54:18.720Z,984.9
2018-04-30T10:55:20.160Z,984.8
2018-04-30T10:56:21.570Z,984.6
2018-04-30T10:57:22.985Z,984.7
2018-04-30T10:58:24.408Z,985.0
2018-04-30T10:59:25.814Z,985.0
2018-04-30T11:00:27.225Z,985.0
2018-04-30T11:01:28.636Z,985.0
2018-04-30T11:02:30.047Z,985.0
2018-04-30T11:03:31.459Z,984.9
2018-04-30T11:04:32.872Z,984.8
2018-04-30T11:05:34.285Z,984.9
2018-04-30T11:06:35.741Z,984.9
2018-04-30T11:07:37.159Z,985.3
2018-04-30T11:08:38.565Z,985.2
2018-04-30T11:09:39.968Z,986.2
2018-04-30T11:10:41.387Z,985.1
2018-04-30T11:11:42.803Z,985.0
2018-04-30T11:12:44.214Z,985.0
2018-04-30T11:13:45.636Z,984.9
2018-04-30T11:14:47.036Z,985.6
2018-04-30T11:15:48.455Z,985.7
2018-04-30T11:16:49.866Z,985.9
2018-04-30T11:17:51.281Z,986.1
2018-04-30T11:18:52.697Z,984.9
2018-04-30T11:19:54.121Z,986.1
2018-04-30T11:20:55.534Z,985.1
2018-04-30T11:21:56.942Z,986.0
2018-04-30T11:22:58.360Z,986.1
2018-04-30T11:23:59.777Z,986.1
2018-04-30T11:25:01.193Z,986.3
2018-04-30T11:26:02.612Z,985.1
2018-04-30T11:27:04.029Z,985.8
2018-04-30T11:28:05.442Z,986.2
2018-04-30T11:29:06.858Z,984.9
2018-04-30T11:30:08.268Z,985.8
2018-04-30T11:31:09.688Z,986.0
2018-04-30T11:32:11.107Z,986.3
2018-04-30T11:33:12.517Z,986.2
2018-04-30T11:34:14.014Z,986.2
2018-04-30T11:35:15.351Z,986.1
2018-04-30T11:36:16.763Z,986.3
2018-04-30T11:37:18.181Z,986.2
2018-04-30T11:38:19.600Z,985.2
2018-04-30T11:39:21.017Z,986.4
2018-04-30T11:40:22.435Z,986.2
2018-04-30T11:41:23.858Z,986.2
2018-04-30T11:42:25.273Z,985.9
2018-04-30T11:43:26.695Z,986.2
2018-04-30T11:44:28.111Z,986.2
2018-04-30T11:45:29.537Z,986.3
2018-04-30T11:46:30.954Z,986.4
2018-04-30T11:47:32.375Z,986.6
2018-04-30T11:48:33.912Z,986.4
2018-04-30T11:49:35.350Z,986.4
2018-04-30T11:50:36.764Z,986.4
2018-04-30T11:51:38.186Z,986.4
2018-04-30T11:52:39.610Z,986.4
2018-04-30T11:53:41.021Z,986.4
2018-04-30T11:54:42.438Z,986.6
2018-04-30T11:55:43.854Z,986.2
2018-04-30T11:56:45.274Z,986.6
2018-04-30T11:57:46.693Z,986.4
2018-04-30T11:58:48.138Z,986.3
2018-04-30T11:59:49.533Z,986.5
2018-04-30T12:00:50.969Z,986.3
2018-04-30T12:01:52.390Z,986.4
2018-04-30T12:02:54.570Z,986.4
2018-04-30T12:03:56.065Z,986.5
2018-04-30T12:04:57.641Z,986.4
2018-04-30T12:05:59.106Z,986.6
2018-04-30T12:07:01.425Z,986.7
2018-04-30T12:08:03.274Z,985.2
2018-04-30T12:09:04.698Z,986.7
2018-04-30T12:10:06.115Z,986.5
2018-04-30T12:11:07.553Z,986.5
2018-04-30T12:12:08.959Z,986.5
2018-04-30T12:13:10.380Z,986.5
2018-04-30T12:14:11.796Z,986.4
2018-04-30T12:15:13.217Z,986.6
2018-04-30T12:16:14.638Z,986.6
2018-04-30T12:17:16.059Z,986.5
2018-04-30T12:18:17.478Z,986.4
2018-04-30T12:19:18.902Z,986.6
2018-04-30T12:20:21.316Z,986.6
2018-04-30T12:21:22.806Z,986.6
2018-04-30T12:22:24.157Z,986.4
2018-04-30T12:23:25.583Z,986.4
2018-04-30T12:24:27.004Z,986.5
2018-04-30T12:25:28.426Z,986.6
2018-04-30T12:26:29.852Z,986.5
2018-04-30T12:27:31.274Z,986.5
2018-04-30T12:28:32.697Z,986.5
2018-04-30T12:29:34.132Z,986.3
2018-04-30T12:30:35.551Z,986.4
2018-04-30T12:31:36.984Z,986.4
2018-04-30T12:32:38.401Z,986.4
2018-04-30T12:33:39.822Z,986.3
2018-04-30T12:34:42.180Z,986.4
2018-04-30T12:35:43.605Z,986.4
2018-04-30T12:36:45.030Z,986.4
2018-04-30T12:37:46.450Z,986.4
2018-04-30T12:38:47.877Z,986.4
2018-04-30T12:39:49.296Z,986.6
2018-04-30T12:40:50.716Z,986.4
2018-04-30T12:41:52.136Z,986.5
2018-04-30T12:42:53.556Z,986.5
2018-04-30T12:43:54.979Z,986.5
2018-04-30T12:44:56.403Z,986.5
2018-04-30T12:45:57.824Z,986.4
2018-04-30T12:46:59.442Z,985.5
2018-04-30T12:48:00.932Z,985.5
2018-04-30T12:49:02.433Z,985.4
2018-04-30T12:50:03.868Z,985.4
2018-04-30T12:51:05.308Z,985.7
2018-04-30T12:52:06.744Z,986.2
2018-04-30T12:53:08.173Z,986.2
2018-04-30T12:54:09.791Z,986.2
2018-04-30T12:55:11.150Z,985.5
2018-04-30T12:56:12.596Z,986.1
2018-04-30T12:57:14.021Z,986.1
2018-04-30T12:58:15.446Z,985.3
2018-04-30T12:59:17.445Z,986.3
2018-04-30T13:00:18.985Z,986.3
2018-04-30T13:01:20.450Z,985.6
2018-04-30T13:02:21.937Z,986.1
2018-04-30T13:03:23.368Z,986.1
2018-04-30T13:04:24.802Z,986.1
2018-04-30T13:05:26.286Z,986.4
2018-04-30T13:06:27.816Z,986.3
2018-04-30T13:07:29.371Z,986.0
2018-04-30T13:08:30.875Z,985.6
2018-04-30T13:09:32.431Z,986.2
2018-04-30T13:10:33.977Z,985.4
2018-04-30T13:11:35.466Z,985.4
2018-04-30T13:12:36.993Z,985.9